sensor_id;sensor_type;location;lat;lon;timestamp;P1;durP1;ratioP1;P2;durP2;ratioP2
52300;SDS011;38528;53.214;6.562;2022-07-29T00:01:17;6.05;;;1.90;;
52300;SDS011;38528;53.214;6.562;2022-07-29T00:03:43;5.25;;;1.80;;
52300;SDS011;38528;53.214;6.562;2022-07-29T00:06:09;6.28;;;2.00;;
52300;SDS011;38528;53.214;6.562;2022-07-29T00:08:34;5.80;;;1.90;;
52300;SDS011;38528;53.214;6.562;2022-07-29T00:11:00;4.05;;;1.90;;
52300;SDS011;38528;53.214;6.562;2022-07-29T00:13:25;6.72;;;1.90;;
52300;SDS011;38528;53.214;6.562;2022-07-29T00:15:51;5.85;;;1.98;;
52300;SDS011;38528;53.214;6.562;2022-07-29T00:18:17;6.85;;;1.90;;
52300;SDS011;38528;53.214;6.562;2022-07-29T00:20:42;4.90;;;1.90;;
52300;SDS011;38528;53.214;6.562;2022-07-29T00:23:08;4.10;;;1.67;;
52300;SDS011;38528;53.214;6.562;2022-07-29T00:25:34;3.22;;;1.88;;
52300;SDS011;38528;53.214;6.562;2022-07-29T00:27:59;4.57;;;1.88;;
52300;SDS011;38528;53.214;6.562;2022-07-29T00:30:25;3.70;;;1.80;;
52300;SDS011;38528;53.214;6.562;2022-07-29T00:32:51;3.78;;;1.88;;
52300;SDS011;38528;53.214;6.562;2022-07-29T00:35:16;4.70;;;1.60;;
52300;SDS011;38528;53.214;6.562;2022-07-29T00:38:00;3.83;;;1.73;;
52300;SDS011;38528;53.214;6.562;2022-07-29T00:40:26;6.28;;;1.80;;
52300;SDS011;38528;53.214;6.562;2022-07-29T00:42:52;6.35;;;1.90;;
52300;SDS011;38528;53.214;6.562;2022-07-29T00:45:18;3.17;;;1.80;;
52300;SDS011;38528;53.214;6.562;2022-07-29T00:47:44;4.30;;;1.80;;
52300;SDS011;38528;53.214;6.562;2022-07-29T00:50:10;3.67;;;1.75;;
52300;SDS011;38528;53.214;6.562;2022-07-29T00:52:38;3.30;;;1.70;;
52300;SDS011;38528;53.214;6.562;2022-07-29T00:55:06;6.43;;;1.95;;
52300;SDS011;38528;53.214;6.562;2022-07-29T00:57:33;3.75;;;1.98;;
52300;SDS011;38528;53.214;6.562;2022-07-29T01:00:00;3.67;;;1.95;;
52300;SDS011;38528;53.214;6.562;2022-07-29T01:02:26;5.28;;;1.90;;
52300;SDS011;38528;53.214;6.562;2022-07-29T01:04:51;4.80;;;2.05;;
52300;SDS011;38528;53.214;6.562;2022-07-29T01:07:18;3.30;;;1.90;;
52300;SDS011;38528;53.214;6.562;2022-07-29T01:09:44;4.05;;;1.92;;
52300;SDS011;38528;53.214;6.562;2022-07-29T01:12:15;6.45;;;2.00;;
52300;SDS011;38528;53.214;6.562;2022-07-29T01:14:43;5.10;;;1.85;;
52300;SDS011;38528;53.214;6.562;2022-07-29T01:17:18;5.00;;;2.10;;
52300;SDS011;38528;53.214;6.562;2022-07-29T01:20:02;3.95;;;1.67;;
52300;SDS011;38528;53.214;6.562;2022-07-29T01:25:11;3.83;;;1.98;;
52300;SDS011;38528;53.214;6.562;2022-07-29T01:27:58;3.67;;;1.90;;
52300;SDS011;38528;53.214;6.562;2022-07-29T01:30:38;4.38;;;2.10;;
52300;SDS011;38528;53.214;6.562;2022-07-29T01:33:07;5.28;;;2.00;;
52300;SDS011;38528;53.214;6.562;2022-07-29T01:35:38;4.35;;;2.10;;
52300;SDS011;38528;53.214;6.562;2022-07-29T01:38:10;4.47;;;2.15;;
52300;SDS011;38528;53.214;6.562;2022-07-29T01:40:47;3.40;;;1.85;;
52300;SDS011;38528;53.214;6.562;2022-07-29T01:43:19;4.80;;;2.10;;
52300;SDS011;38528;53.214;6.562;2022-07-29T01:45:53;4.82;;;2.20;;
52300;SDS011;38528;53.214;6.562;2022-07-29T01:48:32;4.65;;;2.15;;
52300;SDS011;38528;53.214;6.562;2022-07-29T01:53:44;3.72;;;2.10;;
52300;SDS011;38528;53.214;6.562;2022-07-29T01:56:27;4.53;;;2.00;;
52300;SDS011;38528;53.214;6.562;2022-07-29T01:58:57;4.78;;;1.90;;
52300;SDS011;38528;53.214;6.562;2022-07-29T02:01:24;5.45;;;1.90;;
52300;SDS011;38528;53.214;6.562;2022-07-29T02:03:52;4.60;;;1.90;;
52300;SDS011;38528;53.214;6.562;2022-07-29T02:06:20;5.00;;;1.83;;
52300;SDS011;38528;53.214;6.562;2022-07-29T02:08:47;5.20;;;2.10;;
52300;SDS011;38528;53.214;6.562;2022-07-29T02:11:13;4.68;;;2.05;;
52300;SDS011;38528;53.214;6.562;2022-07-29T02:13:39;5.53;;;1.80;;
52300;SDS011;38528;53.214;6.562;2022-07-29T02:16:06;5.63;;;2.00;;
52300;SDS011;38528;53.214;6.562;2022-07-29T02:18:34;4.93;;;2.08;;
52300;SDS011;38528;53.214;6.562;2022-07-29T02:21:02;5.47;;;1.88;;
52300;SDS011;38528;53.214;6.562;2022-07-29T02:23:28;6.57;;;2.20;;
52300;SDS011;38528;53.214;6.562;2022-07-29T02:25:57;4.35;;;2.13;;
52300;SDS011;38528;53.214;6.562;2022-07-29T02:28:25;3.22;;;1.70;;
52300;SDS011;38528;53.214;6.562;2022-07-29T02:30:53;3.83;;;1.83;;
52300;SDS011;38528;53.214;6.562;2022-07-29T02:33:22;6.40;;;2.70;;
52300;SDS011;38528;53.214;6.562;2022-07-29T02:35:50;4.68;;;1.88;;
52300;SDS011;38528;53.214;6.562;2022-07-29T02:38:17;5.93;;;1.90;;
52300;SDS011;38528;53.214;6.562;2022-07-29T02:41:03;4.35;;;1.80;;
52300;SDS011;38528;53.214;6.562;2022-07-29T02:43:32;4.60;;;2.20;;
52300;SDS011;38528;53.214;6.562;2022-07-29T02:46:00;5.35;;;2.05;;
52300;SDS011;38528;53.214;6.562;2022-07-29T02:48:34;5.32;;;1.92;;
52300;SDS011;38528;53.214;6.562;2022-07-29T02:51:23;4.28;;;1.80;;
52300;SDS011;38528;53.214;6.562;2022-07-29T02:53:54;4.18;;;2.22;;
52300;SDS011;38528;53.214;6.562;2022-07-29T02:56:23;5.38;;;2.00;;
52300;SDS011;38528;53.214;6.562;2022-07-29T02:58:56;5.13;;;1.95;;
52300;SDS011;38528;53.214;6.562;2022-07-29T03:01:24;5.95;;;1.90;;
52300;SDS011;38528;53.214;6.562;2022-07-29T03:03:54;3.92;;;1.80;;
52300;SDS011;38528;53.214;6.562;2022-07-29T03:06:22;5.05;;;1.90;;
52300;SDS011;38528;53.214;6.562;2022-07-29T03:08:50;4.82;;;1.98;;
52300;SDS011;38528;53.214;6.562;2022-07-29T03:11:16;3.63;;;1.70;;
52300;SDS011;38528;53.214;6.562;2022-07-29T03:13:42;4.30;;;1.70;;
52300;SDS011;38528;53.214;6.562;2022-07-29T03:16:08;4.93;;;1.80;;
52300;SDS011;38528;53.214;6.562;2022-07-29T03:18:35;3.92;;;1.85;;
52300;SDS011;38528;53.214;6.562;2022-07-29T03:21:02;5.03;;;1.80;;
52300;SDS011;38528;53.214;6.562;2022-07-29T03:23:28;5.57;;;2.05;;
52300;SDS011;38528;53.214;6.562;2022-07-29T03:25:54;3.40;;;1.77;;
52300;SDS011;38528;53.214;6.562;2022-07-29T03:28:20;3.92;;;1.90;;
52300;SDS011;38528;53.214;6.562;2022-07-29T03:30:46;7.75;;;1.83;;
52300;SDS011;38528;53.214;6.562;2022-07-29T03:33:12;3.75;;;1.60;;
52300;SDS011;38528;53.214;6.562;2022-07-29T03:35:38;3.85;;;1.90;;
52300;SDS011;38528;53.214;6.562;2022-07-29T03:38:04;6.57;;;2.00;;
52300;SDS011;38528;53.214;6.562;2022-07-29T03:40:31;5.68;;;1.83;;
52300;SDS011;38528;53.214;6.562;2022-07-29T03:43:02;2.80;;;1.80;;
52300;SDS011;38528;53.214;6.562;2022-07-29T03:45:30;6.00;;;1.80;;
52300;SDS011;38528;53.214;6.562;2022-07-29T03:47:59;5.30;;;2.50;;
52300;SDS011;38528;53.214;6.562;2022-07-29T03:55:25;4.82;;;2.03;;
52300;SDS011;38528;53.214;6.562;2022-07-29T03:57:53;6.32;;;1.90;;
52300;SDS011;38528;53.214;6.562;2022-07-29T04:00:22;8.15;;;2.15;;
52300;SDS011;38528;53.214;6.562;2022-07-29T04:02:49;7.63;;;2.10;;
52300;SDS011;38528;53.214;6.562;2022-07-29T04:05:16;4.38;;;1.98;;
52300;SDS011;38528;53.214;6.562;2022-07-29T04:07:46;4.05;;;2.00;;
52300;SDS011;38528;53.214;6.562;2022-07-29T04:10:12;5.45;;;2.15;;
52300;SDS011;38528;53.214;6.562;2022-07-29T04:12:40;4.65;;;1.85;;
52300;SDS011;38528;53.214;6.562;2022-07-29T04:15:06;5.03;;;2.10;;
52300;SDS011;38528;53.214;6.562;2022-07-29T04:17:32;8.77;;;2.00;;
52300;SDS011;38528;53.214;6.562;2022-07-29T04:19:57;7.05;;;2.03;;
52300;SDS011;38528;53.214;6.562;2022-07-29T04:22:23;5.53;;;2.17;;
52300;SDS011;38528;53.214;6.562;2022-07-29T04:24:49;6.30;;;2.05;;
52300;SDS011;38528;53.214;6.562;2022-07-29T04:27:14;4.70;;;2.25;;
52300;SDS011;38528;53.214;6.562;2022-07-29T04:29:40;3.95;;;2.13;;
52300;SDS011;38528;53.214;6.562;2022-07-29T04:32:05;4.97;;;2.00;;
52300;SDS011;38528;53.214;6.562;2022-07-29T04:34:31;3.90;;;1.85;;
52300;SDS011;38528;53.214;6.562;2022-07-29T04:36:57;6.35;;;2.08;;
52300;SDS011;38528;53.214;6.562;2022-07-29T04:39:22;4.88;;;2.13;;
52300;SDS011;38528;53.214;6.562;2022-07-29T04:41:49;6.00;;;2.20;;
52300;SDS011;38528;53.214;6.562;2022-07-29T04:44:15;6.07;;;1.90;;
52300;SDS011;38528;53.214;6.562;2022-07-29T04:46:40;4.75;;;2.05;;
52300;SDS011;38528;53.214;6.562;2022-07-29T04:49:06;3.58;;;1.77;;
52300;SDS011;38528;53.214;6.562;2022-07-29T04:51:32;4.22;;;1.85;;
52300;SDS011;38528;53.214;6.562;2022-07-29T04:53:59;6.57;;;1.85;;
52300;SDS011;38528;53.214;6.562;2022-07-29T04:56:25;5.93;;;2.28;;
52300;SDS011;38528;53.214;6.562;2022-07-29T04:58:51;7.57;;;2.15;;
52300;SDS011;38528;53.214;6.562;2022-07-29T05:01:16;4.45;;;2.05;;
52300;SDS011;38528;53.214;6.562;2022-07-29T05:03:42;4.90;;;2.10;;
52300;SDS011;38528;53.214;6.562;2022-07-29T05:06:08;5.07;;;1.92;;
52300;SDS011;38528;53.214;6.562;2022-07-29T05:08:33;4.30;;;1.90;;
52300;SDS011;38528;53.214;6.562;2022-07-29T05:10:59;7.65;;;2.15;;
52300;SDS011;38528;53.214;6.562;2022-07-29T05:13:24;3.85;;;1.90;;
52300;SDS011;38528;53.214;6.562;2022-07-29T05:15:50;4.78;;;2.10;;
52300;SDS011;38528;53.214;6.562;2022-07-29T05:18:16;4.72;;;2.20;;
52300;SDS011;38528;53.214;6.562;2022-07-29T05:20:41;6.03;;;2.08;;
52300;SDS011;38528;53.214;6.562;2022-07-29T05:23:07;4.72;;;2.17;;
52300;SDS011;38528;53.214;6.562;2022-07-29T05:25:33;4.95;;;1.80;;
52300;SDS011;38528;53.214;6.562;2022-07-29T05:27:58;4.15;;;1.90;;
52300;SDS011;38528;53.214;6.562;2022-07-29T05:30:24;4.45;;;2.10;;
52300;SDS011;38528;53.214;6.562;2022-07-29T05:32:50;9.18;;;2.33;;
52300;SDS011;38528;53.214;6.562;2022-07-29T05:35:15;5.05;;;1.90;;
52300;SDS011;38528;53.214;6.562;2022-07-29T05:37:41;4.50;;;2.10;;
52300;SDS011;38528;53.214;6.562;2022-07-29T05:40:07;4.45;;;2.03;;
52300;SDS011;38528;53.214;6.562;2022-07-29T05:42:33;5.20;;;1.92;;
52300;SDS011;38528;53.214;6.562;2022-07-29T05:44:59;6.53;;;1.92;;
52300;SDS011;38528;53.214;6.562;2022-07-29T05:47:26;4.80;;;2.00;;
52300;SDS011;38528;53.214;6.562;2022-07-29T05:49:51;6.38;;;1.92;;
52300;SDS011;38528;53.214;6.562;2022-07-29T05:52:17;5.35;;;2.10;;
52300;SDS011;38528;53.214;6.562;2022-07-29T05:54:43;8.52;;;2.20;;
52300;SDS011;38528;53.214;6.562;2022-07-29T05:57:14;4.45;;;2.20;;
52300;SDS011;38528;53.214;6.562;2022-07-29T05:59:44;6.50;;;2.17;;
52300;SDS011;38528;53.214;6.562;2022-07-29T06:02:10;5.18;;;2.00;;
52300;SDS011;38528;53.214;6.562;2022-07-29T06:04:36;6.03;;;2.13;;
52300;SDS011;38528;53.214;6.562;2022-07-29T06:07:02;4.75;;;2.15;;
52300;SDS011;38528;53.214;6.562;2022-07-29T06:09:27;7.65;;;2.33;;
52300;SDS011;38528;53.214;6.562;2022-07-29T06:11:53;9.57;;;2.30;;
52300;SDS011;38528;53.214;6.562;2022-07-29T06:14:18;5.18;;;2.10;;
52300;SDS011;38528;53.214;6.562;2022-07-29T06:16:44;5.97;;;2.08;;
52300;SDS011;38528;53.214;6.562;2022-07-29T06:19:11;7.55;;;2.40;;
52300;SDS011;38528;53.214;6.562;2022-07-29T06:21:36;9.27;;;2.70;;
52300;SDS011;38528;53.214;6.562;2022-07-29T06:24:10;9.27;;;2.42;;
52300;SDS011;38528;53.214;6.562;2022-07-29T06:26:37;9.27;;;2.25;;
52300;SDS011;38528;53.214;6.562;2022-07-29T06:29:04;8.10;;;2.10;;
52300;SDS011;38528;53.214;6.562;2022-07-29T06:31:30;8.65;;;2.30;;
52300;SDS011;38528;53.214;6.562;2022-07-29T06:33:55;6.28;;;2.38;;
52300;SDS011;38528;53.214;6.562;2022-07-29T06:36:21;7.50;;;2.15;;
52300;SDS011;38528;53.214;6.562;2022-07-29T06:38:46;7.70;;;2.05;;
52300;SDS011;38528;53.214;6.562;2022-07-29T06:41:12;4.43;;;1.88;;
52300;SDS011;38528;53.214;6.562;2022-07-29T06:43:41;4.05;;;1.95;;
52300;SDS011;38528;53.214;6.562;2022-07-29T06:46:10;5.28;;;2.05;;
52300;SDS011;38528;53.214;6.562;2022-07-29T06:48:37;6.25;;;2.20;;
52300;SDS011;38528;53.214;6.562;2022-07-29T06:51:04;4.50;;;1.92;;
52300;SDS011;38528;53.214;6.562;2022-07-29T06:53:31;7.35;;;2.42;;
52300;SDS011;38528;53.214;6.562;2022-07-29T06:55:57;5.53;;;2.30;;
52300;SDS011;38528;53.214;6.562;2022-07-29T06:58:25;7.53;;;2.22;;
52300;SDS011;38528;53.214;6.562;2022-07-29T07:00:51;4.97;;;2.15;;
52300;SDS011;38528;53.214;6.562;2022-07-29T07:03:17;6.72;;;2.42;;
52300;SDS011;38528;53.214;6.562;2022-07-29T07:05:43;6.88;;;1.90;;
52300;SDS011;38528;53.214;6.562;2022-07-29T07:08:10;10.13;;;2.38;;
52300;SDS011;38528;53.214;6.562;2022-07-29T07:10:36;8.63;;;2.50;;
52300;SDS011;38528;53.214;6.562;2022-07-29T07:13:02;5.47;;;2.30;;
52300;SDS011;38528;53.214;6.562;2022-07-29T07:15:29;7.40;;;2.38;;
52300;SDS011;38528;53.214;6.562;2022-07-29T07:17:55;8.90;;;2.53;;
52300;SDS011;38528;53.214;6.562;2022-07-29T07:20:20;7.68;;;2.20;;
52300;SDS011;38528;53.214;6.562;2022-07-29T07:22:46;8.25;;;2.53;;
52300;SDS011;38528;53.214;6.562;2022-07-29T07:25:12;8.35;;;2.58;;
52300;SDS011;38528;53.214;6.562;2022-07-29T07:27:38;8.95;;;2.50;;
52300;SDS011;38528;53.214;6.562;2022-07-29T07:30:04;6.57;;;2.38;;
52300;SDS011;38528;53.214;6.562;2022-07-29T07:32:31;7.45;;;2.30;;
52300;SDS011;38528;53.214;6.562;2022-07-29T07:34:57;7.70;;;2.30;;
52300;SDS011;38528;53.214;6.562;2022-07-29T07:37:24;7.20;;;2.20;;
52300;SDS011;38528;53.214;6.562;2022-07-29T07:39:50;6.13;;;2.35;;
52300;SDS011;38528;53.214;6.562;2022-07-29T07:42:16;5.47;;;1.90;;
52300;SDS011;38528;53.214;6.562;2022-07-29T07:44:42;7.28;;;2.00;;
52300;SDS011;38528;53.214;6.562;2022-07-29T07:47:08;6.95;;;2.78;;
52300;SDS011;38528;53.214;6.562;2022-07-29T07:49:34;5.80;;;2.03;;
52300;SDS011;38528;53.214;6.562;2022-07-29T07:51:59;8.10;;;2.38;;
52300;SDS011;38528;53.214;6.562;2022-07-29T07:54:25;6.63;;;1.92;;
52300;SDS011;38528;53.214;6.562;2022-07-29T07:56:51;8.27;;;2.30;;
52300;SDS011;38528;53.214;6.562;2022-07-29T07:59:16;5.45;;;2.20;;
52300;SDS011;38528;53.214;6.562;2022-07-29T08:01:42;6.20;;;2.10;;
52300;SDS011;38528;53.214;6.562;2022-07-29T08:04:08;8.18;;;2.47;;
52300;SDS011;38528;53.214;6.562;2022-07-29T08:06:34;5.70;;;2.10;;
52300;SDS011;38528;53.214;6.562;2022-07-29T08:09:02;7.28;;;2.00;;
52300;SDS011;38528;53.214;6.562;2022-07-29T08:11:29;4.85;;;1.98;;
52300;SDS011;38528;53.214;6.562;2022-07-29T08:13:55;5.07;;;2.30;;
52300;SDS011;38528;53.214;6.562;2022-07-29T08:16:20;7.40;;;2.22;;
52300;SDS011;38528;53.214;6.562;2022-07-29T08:18:46;4.80;;;2.25;;
52300;SDS011;38528;53.214;6.562;2022-07-29T08:21:13;6.13;;;2.10;;
52300;SDS011;38528;53.214;6.562;2022-07-29T08:23:39;5.88;;;2.50;;
52300;SDS011;38528;53.214;6.562;2022-07-29T08:26:10;4.63;;;2.25;;
52300;SDS011;38528;53.214;6.562;2022-07-29T08:28:38;5.55;;;2.33;;
52300;SDS011;38528;53.214;6.562;2022-07-29T08:31:04;5.78;;;2.17;;
52300;SDS011;38528;53.214;6.562;2022-07-29T08:33:30;6.05;;;2.50;;
52300;SDS011;38528;53.214;6.562;2022-07-29T08:35:57;8.35;;;2.38;;
52300;SDS011;38528;53.214;6.562;2022-07-29T08:38:23;6.13;;;2.30;;
52300;SDS011;38528;53.214;6.562;2022-07-29T08:40:49;7.55;;;2.38;;
52300;SDS011;38528;53.214;6.562;2022-07-29T08:43:14;4.90;;;2.20;;
52300;SDS011;38528;53.214;6.562;2022-07-29T08:45:44;5.55;;;2.28;;
52300;SDS011;38528;53.214;6.562;2022-07-29T08:48:12;7.82;;;2.45;;
52300;SDS011;38528;53.214;6.562;2022-07-29T08:50:38;7.07;;;2.20;;
52300;SDS011;38528;53.214;6.562;2022-07-29T08:53:06;6.72;;;2.22;;
52300;SDS011;38528;53.214;6.562;2022-07-29T08:55:35;4.63;;;1.98;;
52300;SDS011;38528;53.214;6.562;2022-07-29T08:58:04;5.80;;;1.88;;
52300;SDS011;38528;53.214;6.562;2022-07-29T09:00:30;10.45;;;2.20;;
52300;SDS011;38528;53.214;6.562;2022-07-29T09:02:57;5.63;;;2.13;;
52300;SDS011;38528;53.214;6.562;2022-07-29T09:05:24;6.53;;;2.17;;
52300;SDS011;38528;53.214;6.562;2022-07-29T09:07:51;5.30;;;2.33;;
52300;SDS011;38528;53.214;6.562;2022-07-29T09:10:17;4.80;;;2.20;;
52300;SDS011;38528;53.214;6.562;2022-07-29T09:12:43;6.57;;;1.98;;
52300;SDS011;38528;53.214;6.562;2022-07-29T09:15:09;6.68;;;2.28;;
52300;SDS011;38528;53.214;6.562;2022-07-29T09:17:45;5.93;;;2.67;;
52300;SDS011;38528;53.214;6.562;2022-07-29T09:20:15;7.80;;;2.60;;
52300;SDS011;38528;53.214;6.562;2022-07-29T09:22:43;4.72;;;1.88;;
52300;SDS011;38528;53.214;6.562;2022-07-29T09:25:14;3.65;;;2.40;;
52300;SDS011;38528;53.214;6.562;2022-07-29T09:28:05;8.40;;;2.42;;
52300;SDS011;38528;53.214;6.562;2022-07-29T09:30:34;5.05;;;2.30;;
52300;SDS011;38528;53.214;6.562;2022-07-29T09:33:01;6.18;;;2.42;;
52300;SDS011;38528;53.214;6.562;2022-07-29T09:35:28;5.35;;;2.40;;
52300;SDS011;38528;53.214;6.562;2022-07-29T09:37:55;4.72;;;2.47;;
52300;SDS011;38528;53.214;6.562;2022-07-29T09:40:25;5.75;;;2.40;;
52300;SDS011;38528;53.214;6.562;2022-07-29T09:42:52;6.85;;;2.72;;
52300;SDS011;38528;53.214;6.562;2022-07-29T09:45:28;7.07;;;2.70;;
52300;SDS011;38528;53.214;6.562;2022-07-29T09:47:58;4.63;;;2.60;;
52300;SDS011;38528;53.214;6.562;2022-07-29T09:50:41;8.45;;;2.70;;
52300;SDS011;38528;53.214;6.562;2022-07-29T09:53:08;8.88;;;2.80;;
52300;SDS011;38528;53.214;6.562;2022-07-29T09:55:48;7.82;;;2.78;;
52300;SDS011;38528;53.214;6.562;2022-07-29T09:58:15;9.65;;;2.78;;
52300;SDS011;38528;53.214;6.562;2022-07-29T10:00:46;7.68;;;2.58;;
52300;SDS011;38528;53.214;6.562;2022-07-29T10:03:13;10.50;;;2.65;;
52300;SDS011;38528;53.214;6.562;2022-07-29T10:05:40;7.80;;;2.70;;
52300;SDS011;38528;53.214;6.562;2022-07-29T10:08:07;8.52;;;2.80;;
52300;SDS011;38528;53.214;6.562;2022-07-29T10:10:37;7.10;;;2.40;;
52300;SDS011;38528;53.214;6.562;2022-07-29T10:13:14;5.70;;;2.60;;
52300;SDS011;38528;53.214;6.562;2022-07-29T10:18:08;7.07;;;2.55;;
52300;SDS011;38528;53.214;6.562;2022-07-29T10:20:35;6.63;;;2.53;;
52300;SDS011;38528;53.214;6.562;2022-07-29T10:23:01;6.07;;;2.45;;
52300;SDS011;38528;53.214;6.562;2022-07-29T10:25:27;6.72;;;2.65;;
52300;SDS011;38528;53.214;6.562;2022-07-29T10:27:53;6.22;;;2.60;;
52300;SDS011;38528;53.214;6.562;2022-07-29T10:30:20;9.63;;;2.92;;
52300;SDS011;38528;53.214;6.562;2022-07-29T10:32:58;6.28;;;2.60;;
52300;SDS011;38528;53.214;6.562;2022-07-29T10:35:53;7.32;;;2.60;;
52300;SDS011;38528;53.214;6.562;2022-07-29T10:38:40;6.38;;;2.70;;
52300;SDS011;38528;53.214;6.562;2022-07-29T10:44:17;8.43;;;2.83;;
52300;SDS011;38528;53.214;6.562;2022-07-29T10:46:45;10.82;;;2.45;;
52300;SDS011;38528;53.214;6.562;2022-07-29T10:49:12;5.72;;;2.47;;
52300;SDS011;38528;53.214;6.562;2022-07-29T10:51:53;6.80;;;2.70;;
52300;SDS011;38528;53.214;6.562;2022-07-29T11:05:04;7.55;;;2.50;;
52300;SDS011;38528;53.214;6.562;2022-07-29T11:07:33;7.53;;;2.67;;
52300;SDS011;38528;53.214;6.562;2022-07-29T11:20:32;6.72;;;3.13;;
52300;SDS011;38528;53.214;6.562;2022-07-29T11:22:59;9.13;;;2.78;;
52300;SDS011;38528;53.214;6.562;2022-07-29T11:25:25;7.95;;;2.78;;
52300;SDS011;38528;53.214;6.562;2022-07-29T11:27:52;7.97;;;2.85;;
52300;SDS011;38528;53.214;6.562;2022-07-29T11:30:19;5.68;;;2.67;;
52300;SDS011;38528;53.214;6.562;2022-07-29T11:32:45;7.65;;;3.00;;
52300;SDS011;38528;53.214;6.562;2022-07-29T11:35:19;7.00;;;2.78;;
52300;SDS011;38528;53.214;6.562;2022-07-29T11:43:49;5.47;;;2.65;;
52300;SDS011;38528;53.214;6.562;2022-07-29T11:49:19;7.72;;;2.80;;
52300;SDS011;38528;53.214;6.562;2022-07-29T11:51:53;6.95;;;2.78;;
52300;SDS011;38528;53.214;6.562;2022-07-29T11:54:24;7.45;;;3.00;;
52300;SDS011;38528;53.214;6.562;2022-07-29T11:56:52;6.93;;;2.78;;
52300;SDS011;38528;53.214;6.562;2022-07-29T11:59:18;5.30;;;2.65;;
52300;SDS011;38528;53.214;6.562;2022-07-29T12:01:53;9.70;;;2.60;;
52300;SDS011;38528;53.214;6.562;2022-07-29T12:04:20;7.60;;;2.83;;
52300;SDS011;38528;53.214;6.562;2022-07-29T12:06:51;5.63;;;2.45;;
52300;SDS011;38528;53.214;6.562;2022-07-29T12:09:18;8.25;;;2.70;;
52300;SDS011;38528;53.214;6.562;2022-07-29T12:11:45;7.35;;;2.40;;
52300;SDS011;38528;53.214;6.562;2022-07-29T12:14:30;5.82;;;2.75;;
52300;SDS011;38528;53.214;6.562;2022-07-29T12:16:58;9.50;;;2.65;;
52300;SDS011;38528;53.214;6.562;2022-07-29T12:19:24;4.43;;;2.50;;
52300;SDS011;38528;53.214;6.562;2022-07-29T12:21:51;7.63;;;2.70;;
52300;SDS011;38528;53.214;6.562;2022-07-29T12:24:20;5.35;;;2.55;;
52300;SDS011;38528;53.214;6.562;2022-07-29T12:26:58;7.75;;;2.45;;
52300;SDS011;38528;53.214;6.562;2022-07-29T12:29:24;6.85;;;2.60;;
52300;SDS011;38528;53.214;6.562;2022-07-29T12:31:52;7.63;;;2.58;;
52300;SDS011;38528;53.214;6.562;2022-07-29T12:34:20;6.75;;;2.63;;
52300;SDS011;38528;53.214;6.562;2022-07-29T12:36:49;6.22;;;2.90;;
52300;SDS011;38528;53.214;6.562;2022-07-29T12:39:15;10.43;;;2.63;;
52300;SDS011;38528;53.214;6.562;2022-07-29T12:41:42;5.93;;;2.47;;
52300;SDS011;38528;53.214;6.562;2022-07-29T12:44:09;13.15;;;2.53;;
52300;SDS011;38528;53.214;6.562;2022-07-29T12:46:35;6.72;;;2.30;;
52300;SDS011;38528;53.214;6.562;2022-07-29T12:49:01;7.68;;;2.67;;
52300;SDS011;38528;53.214;6.562;2022-07-29T12:56:38;11.02;;;2.53;;
52300;SDS011;38528;53.214;6.562;2022-07-29T13:01:37;11.43;;;2.63;;
52300;SDS011;38528;53.214;6.562;2022-07-29T13:04:03;5.60;;;1.90;;
52300;SDS011;38528;53.214;6.562;2022-07-29T13:11:33;5.70;;;2.35;;
52300;SDS011;38528;53.214;6.562;2022-07-29T13:14:00;5.43;;;2.10;;
52300;SDS011;38528;53.214;6.562;2022-07-29T13:16:26;8.43;;;2.20;;
52300;SDS011;38528;53.214;6.562;2022-07-29T13:19:05;9.82;;;2.17;;
52300;SDS011;38528;53.214;6.562;2022-07-29T13:21:32;7.43;;;2.30;;
52300;SDS011;38528;53.214;6.562;2022-07-29T13:23:58;10.88;;;2.40;;
52300;SDS011;38528;53.214;6.562;2022-07-29T13:26:24;6.70;;;2.42;;
52300;SDS011;38528;53.214;6.562;2022-07-29T13:28:53;6.82;;;2.70;;
52300;SDS011;38528;53.214;6.562;2022-07-29T13:31:19;10.85;;;3.15;;
52300;SDS011;38528;53.214;6.562;2022-07-29T13:33:47;6.70;;;2.63;;
52300;SDS011;38528;53.214;6.562;2022-07-29T13:36:13;6.70;;;2.50;;
52300;SDS011;38528;53.214;6.562;2022-07-29T13:38:38;4.97;;;2.50;;
52300;SDS011;38528;53.214;6.562;2022-07-29T13:41:04;4.18;;;2.20;;
52300;SDS011;38528;53.214;6.562;2022-07-29T13:43:30;5.05;;;2.28;;
52300;SDS011;38528;53.214;6.562;2022-07-29T13:45:56;6.82;;;2.80;;
52300;SDS011;38528;53.214;6.562;2022-07-29T13:48:21;7.55;;;2.72;;
52300;SDS011;38528;53.214;6.562;2022-07-29T13:50:47;7.35;;;2.60;;
52300;SDS011;38528;53.214;6.562;2022-07-29T13:53:13;6.70;;;2.58;;
52300;SDS011;38528;53.214;6.562;2022-07-29T13:55:39;7.30;;;2.67;;
52300;SDS011;38528;53.214;6.562;2022-07-29T13:58:05;7.82;;;2.90;;
52300;SDS011;38528;53.214;6.562;2022-07-29T14:00:30;8.18;;;3.15;;
52300;SDS011;38528;53.214;6.562;2022-07-29T14:02:56;7.47;;;2.83;;
52300;SDS011;38528;53.214;6.562;2022-07-29T14:05:22;6.75;;;2.53;;
52300;SDS011;38528;53.214;6.562;2022-07-29T14:07:48;6.05;;;2.35;;
52300;SDS011;38528;53.214;6.562;2022-07-29T14:10:13;8.25;;;2.50;;
52300;SDS011;38528;53.214;6.562;2022-07-29T14:12:39;8.23;;;2.20;;
52300;SDS011;38528;53.214;6.562;2022-07-29T14:15:06;8.27;;;2.47;;
52300;SDS011;38528;53.214;6.562;2022-07-29T14:17:32;6.68;;;2.40;;
52300;SDS011;38528;53.214;6.562;2022-07-29T14:19:58;6.20;;;2.20;;
52300;SDS011;38528;53.214;6.562;2022-07-29T14:22:24;6.18;;;2.28;;
52300;SDS011;38528;53.214;6.562;2022-07-29T14:24:50;7.13;;;2.13;;
52300;SDS011;38528;53.214;6.562;2022-07-29T14:27:15;4.97;;;1.88;;
52300;SDS011;38528;53.214;6.562;2022-07-29T14:29:41;8.07;;;2.13;;
52300;SDS011;38528;53.214;6.562;2022-07-29T14:32:07;6.55;;;2.10;;
52300;SDS011;38528;53.214;6.562;2022-07-29T14:34:35;5.93;;;2.20;;
52300;SDS011;38528;53.214;6.562;2022-07-29T14:37:01;5.80;;;2.03;;
52300;SDS011;38528;53.214;6.562;2022-07-29T14:39:30;6.30;;;2.10;;
52300;SDS011;38528;53.214;6.562;2022-07-29T14:41:56;6.22;;;2.22;;
52300;SDS011;38528;53.214;6.562;2022-07-29T14:44:22;6.25;;;2.00;;
52300;SDS011;38528;53.214;6.562;2022-07-29T14:46:48;6.38;;;2.00;;
52300;SDS011;38528;53.214;6.562;2022-07-29T14:49:14;5.97;;;2.10;;
52300;SDS011;38528;53.214;6.562;2022-07-29T14:51:40;6.68;;;2.45;;
52300;SDS011;38528;53.214;6.562;2022-07-29T14:54:06;7.35;;;2.30;;
52300;SDS011;38528;53.214;6.562;2022-07-29T14:56:31;5.57;;;2.20;;
52300;SDS011;38528;53.214;6.562;2022-07-29T14:58:57;7.32;;;2.10;;
52300;SDS011;38528;53.214;6.562;2022-07-29T15:01:23;7.47;;;2.03;;
52300;SDS011;38528;53.214;6.562;2022-07-29T15:03:49;7.25;;;2.35;;
52300;SDS011;38528;53.214;6.562;2022-07-29T15:06:15;8.43;;;2.10;;
52300;SDS011;38528;53.214;6.562;2022-07-29T15:08:41;5.53;;;2.00;;
52300;SDS011;38528;53.214;6.562;2022-07-29T15:11:06;6.20;;;2.10;;
52300;SDS011;38528;53.214;6.562;2022-07-29T15:13:35;7.43;;;2.30;;
52300;SDS011;38528;53.214;6.562;2022-07-29T15:16:00;5.40;;;2.30;;
52300;SDS011;38528;53.214;6.562;2022-07-29T15:18:26;6.65;;;2.20;;
52300;SDS011;38528;53.214;6.562;2022-07-29T15:20:52;5.10;;;2.33;;
52300;SDS011;38528;53.214;6.562;2022-07-29T15:23:17;4.85;;;2.10;;
52300;SDS011;38528;53.214;6.562;2022-07-29T15:25:43;5.13;;;2.00;;
52300;SDS011;38528;53.214;6.562;2022-07-29T15:28:08;6.40;;;2.22;;
52300;SDS011;38528;53.214;6.562;2022-07-29T15:30:34;6.07;;;2.10;;
52300;SDS011;38528;53.214;6.562;2022-07-29T15:33:05;6.85;;;2.30;;
52300;SDS011;38528;53.214;6.562;2022-07-29T15:35:33;5.70;;;1.90;;
52300;SDS011;38528;53.214;6.562;2022-07-29T15:37:59;6.93;;;2.35;;
52300;SDS011;38528;53.214;6.562;2022-07-29T15:40:26;5.63;;;2.22;;
52300;SDS011;38528;53.214;6.562;2022-07-29T15:42:54;4.80;;;2.17;;
52300;SDS011;38528;53.214;6.562;2022-07-29T15:45:20;5.68;;;2.20;;
52300;SDS011;38528;53.214;6.562;2022-07-29T15:47:45;9.55;;;2.45;;
52300;SDS011;38528;53.214;6.562;2022-07-29T15:50:11;10.23;;;2.72;;